createdAt,value
2022-08-22T00:00:06.202Z,965.52
2022-08-22T00:01:06.437Z,965.47
2022-08-22T00:02:06.754Z,965.45
2022-08-22T00:02:47.781Z,965.09
2022-08-22T00:02:52.599Z,965.10
2022-08-22T00:02:53.533Z,965.32
2022-08-22T00:02:55.438Z,965.68
2022-08-22T00:02:58.277Z,965.36
2022-08-22T00:03:04.817Z,965.09
2022-08-22T00:03:09.414Z,965.51
2022-08-22T00:03:15.187Z,965.57
2022-08-22T00:03:22.618Z,965.49
2022-08-22T00:04:08.319Z,965.44
2022-08-22T00:05:07.554Z,965.41
2022-08-22T00:06:07.862Z,965.44
2022-08-22T00:07:08.161Z,965.44
2022-08-22T00:08:08.464Z,965.45
2022-08-22T00:09:08.753Z,965.42
2022-08-22T00:10:09.043Z,965.44
2022-08-22T00:11:09.375Z,965.44
2022-08-22T00:12:09.664Z,965.44
2022-08-22T00:13:09.992Z,965.46
2022-08-22T00:14:10.172Z,965.48
2022-08-22T00:15:31.531Z,965.49
2022-08-22T00:16:11.770Z,965.47
2022-08-22T00:17:11.041Z,965.42
2022-08-22T00:18:11.330Z,965.42
2022-08-22T00:19:11.673Z,965.40
2022-08-22T00:20:11.901Z,965.39
2022-08-22T00:21:12.204Z,965.37
2022-08-22T00:22:12.503Z,965.35
2022-08-22T00:23:12.803Z,965.40
2022-08-22T00:24:13.141Z,965.39
2022-08-22T00:25:24.685Z,965.39
2022-08-22T00:26:14.751Z,965.39
2022-08-22T00:27:13.991Z,965.39
2022-08-22T00:28:14.295Z,965.39
2022-08-22T00:29:14.593Z,965.37
2022-08-22T00:30:14.943Z,965.37
2022-08-22T00:31:15.271Z,965.37
2022-08-22T00:32:15.606Z,965.36
2022-08-22T00:33:15.894Z,965.38
2022-08-22T00:34:16.182Z,965.34
2022-08-22T00:35:16.465Z,965.33
2022-08-22T00:36:16.781Z,965.33
2022-08-22T00:37:17.128Z,965.32
2022-08-22T00:38:17.392Z,965.28
2022-08-22T00:39:17.573Z,965.24
2022-08-22T00:40:17.973Z,965.20
2022-08-22T00:41:18.195Z,965.17
2022-08-22T00:42:31.927Z,965.18
2022-08-22T00:43:19.836Z,965.21
2022-08-22T00:44:19.102Z,965.19
2022-08-22T00:45:19.405Z,965.14
2022-08-22T00:46:19.694Z,965.13
2022-08-22T00:47:19.988Z,965.13
2022-08-22T00:48:20.292Z,965.14
2022-08-22T00:49:20.605Z,965.16
2022-08-22T00:50:20.832Z,965.17
2022-08-22T00:51:21.121Z,965.26
2022-08-22T00:52:21.414Z,965.25
2022-08-22T02:57:02.640Z,965.42
2022-08-22T02:58:02.872Z,965.41
2022-08-22T02:59:03.200Z,965.33
2022-08-22T03:00:03.530Z,965.33
2022-08-22T03:01:03.934Z,965.36
2022-08-22T03:02:04.216Z,965.32
2022-08-22T03:03:04.420Z,965.37
2022-08-22T03:04:04.748Z,965.31
2022-08-22T03:05:05.052Z,965.31
2022-08-22T03:06:05.351Z,965.34
2022-08-22T03:07:05.689Z,965.30
2022-08-22T03:08:05.872Z,965.33
2022-08-22T03:09:06.166Z,965.35
2022-08-22T03:10:06.465Z,965.36
2022-08-22T03:11:06.819Z,965.33
2022-08-22T03:12:07.011Z,965.37
2022-08-22T03:13:07.300Z,965.30
2022-08-22T03:14:07.602Z,965.34
2022-08-22T03:15:08.844Z,965.29
2022-08-22T03:16:08.235Z,965.30
2022-08-22T03:17:08.438Z,965.33
2022-08-22T03:18:08.762Z,965.28
2022-08-22T03:19:18.341Z,965.25
2022-08-22T03:20:10.332Z,965.29
2022-08-22T03:21:09.607Z,965.30
2022-08-22T03:22:09.800Z,965.32
2022-08-22T03:23:10.109Z,965.28
2022-08-22T03:24:10.402Z,965.29
2022-08-22T03:25:10.741Z,965.27
2022-08-22T03:26:11.066Z,965.27
2022-08-22T03:27:11.363Z,965.25
2022-08-22T03:28:11.641Z,965.26
2022-08-22T03:29:11.946Z,965.28
2022-08-22T03:30:12.258Z,965.25
2022-08-22T03:31:12.586Z,965.30
2022-08-22T03:32:12.786Z,965.22
2022-08-22T03:33:13.093Z,965.19
2022-08-22T03:34:13.437Z,965.19
2022-08-22T03:35:13.752Z,965.23
2022-08-22T03:36:14.055Z,965.22
2022-08-22T03:37:14.330Z,965.22
2022-08-22T03:38:14.654Z,965.25
2022-08-22T03:39:17.325Z,965.21
2022-08-22T03:40:15.241Z,965.24
2022-08-22T03:41:15.402Z,965.25
2022-08-22T03:42:15.630Z,965.25
2022-08-22T03:43:15.833Z,965.25
2022-08-22T03:44:16.137Z,965.29
2022-08-22T03:45:16.444Z,965.25
2022-08-22T03:46:18.257Z,965.27
2022-08-22T03:47:17.104Z,965.26
2022-08-22T03:48:17.422Z,965.28
2022-08-22T03:49:17.776Z,965.31
2022-08-22T03:50:17.983Z,965.30
2022-08-22T03:51:18.302Z,965.31
2022-08-22T03:52:18.600Z,965.32
2022-08-22T03:53:19.481Z,965.35
2022-08-22T03:54:19.244Z,965.34
2022-08-22T03:55:19.556Z,965.34
2022-08-22T03:56:19.912Z,965.34
2022-08-22T03:57:20.138Z,965.32
2022-08-22T03:58:27.447Z,965.31
2022-08-22T03:59:21.748Z,965.32
2022-08-22T04:00:20.997Z,965.30
2022-08-22T04:01:21.333Z,965.32
2022-08-22T04:02:24.747Z,965.31
2022-08-22T04:03:22.928Z,965.37
2022-08-22T04:04:22.163Z,965.36
2022-08-22T04:05:22.461Z,965.38
2022-08-22T04:06:22.725Z,965.36
2022-08-22T04:07:28.160Z,965.37
2022-08-22T04:08:26.339Z,965.36
2022-08-22T04:09:23.686Z,965.37
2022-08-22T04:10:23.868Z,965.37
2022-08-22T04:11:24.151Z,965.40
2022-08-22T04:12:24.430Z,965.38
2022-08-22T04:13:25.016Z,965.39
2022-08-22T04:14:25.034Z,965.38
2022-08-22T04:15:25.223Z,965.37
2022-08-22T04:16:25.539Z,965.32
2022-08-22T04:17:25.847Z,965.37
2022-08-22T04:18:26.070Z,965.32
2022-08-22T04:19:26.424Z,965.35
2022-08-22T04:20:26.617Z,965.32
2022-08-22T04:21:26.925Z,965.32
2022-08-22T04:22:27.209Z,965.33
2022-08-22T04:23:27.513Z,965.32
2022-08-22T04:24:27.812Z,965.30
2022-08-22T04:25:28.110Z,965.27
2022-08-22T04:26:28.413Z,965.28
2022-08-22T04:27:28.723Z,965.28
2022-08-22T04:28:29.056Z,965.25
2022-08-22T04:29:29.369Z,965.23
2022-08-22T04:30:29.684Z,965.24
2022-08-22T04:31:30.002Z,965.25
2022-08-22T04:32:30.312Z,965.23
2022-08-22T04:33:30.665Z,965.24
2022-08-22T04:34:30.858Z,965.24
2022-08-22T04:35:31.164Z,965.27
2022-08-22T04:36:31.470Z,965.28
2022-08-22T04:37:31.758Z,965.29
2022-08-22T04:38:32.082Z,965.29
2022-08-22T04:39:32.285Z,965.32
2022-08-22T04:40:32.604Z,965.31
2022-08-22T04:41:32.914Z,965.38
2022-08-22T04:42:33.590Z,965.35
2022-08-22T04:43:33.569Z,965.37
2022-08-22T04:44:33.879Z,965.41
2022-08-22T04:45:34.181Z,965.45
2022-08-22T04:46:37.053Z,965.42
2022-08-22T04:47:34.764Z,965.46
2022-08-22T04:48:35.102Z,965.43
2022-08-22T04:49:35.343Z,965.40
2022-08-22T04:50:37.252Z,965.45
2022-08-22T04:51:35.800Z,965.48
2022-08-22T04:52:36.135Z,965.44
2022-08-22T04:53:36.399Z,965.44
2022-08-22T04:54:36.606Z,965.49
2022-08-22T04:55:36.921Z,965.47
2022-08-22T04:56:37.244Z,965.46
2022-08-22T04:57:37.553Z,965.48
2022-08-22T04:58:37.883Z,965.48
2022-08-22T04:59:38.185Z,965.42
2022-08-22T05:00:38.509Z,965.44
2022-08-22T05:01:38.944Z,965.45
2022-08-22T05:02:39.047Z,965.47
2022-08-22T05:03:44.352Z,965.52
2022-08-22T05:04:40.640Z,965.47
2022-08-22T05:05:39.914Z,965.47
2022-08-22T05:06:40.119Z,965.48
2022-08-22T05:07:40.473Z,965.50
2022-08-22T05:08:40.682Z,965.51
2022-08-22T05:09:41.005Z,965.52
2022-08-22T05:10:41.313Z,965.54
2022-08-22T05:11:41.627Z,965.52
2022-08-22T05:12:41.976Z,965.48
2022-08-22T05:13:42.159Z,965.50
2022-08-22T05:14:42.428Z,965.53
2022-08-22T05:15:42.740Z,965.54
2022-08-22T05:16:43.044Z,965.57
2022-08-22T05:17:43.373Z,965.60
2022-08-22T05:18:43.575Z,965.64
2022-08-22T05:19:43.889Z,965.68
2022-08-22T05:20:44.209Z,965.70
2022-08-22T05:21:44.548Z,965.67
2022-08-22T05:22:44.891Z,965.65
2022-08-22T05:23:45.189Z,965.69
2022-08-22T05:24:45.494Z,965.68
2022-08-22T05:25:45.801Z,965.71
2022-08-22T05:26:46.096Z,965.73
2022-08-22T05:27:46.404Z,965.73
2022-08-22T05:28:50.182Z,965.73
2022-08-22T05:29:48.048Z,965.72
2022-08-22T05:30:47.294Z,965.69
2022-08-22T05:31:47.606Z,965.74
2022-08-22T05:32:47.932Z,965.70
2022-08-22T05:33:48.246Z,965.73
2022-08-22T05:34:48.629Z,965.71
2022-08-22T05:35:51.594Z,965.73
2022-08-22T05:36:49.222Z,965.65
2022-08-22T05:37:49.521Z,965.68
2022-08-22T05:38:49.880Z,965.67
2022-08-22T05:39:50.098Z,965.65
2022-08-22T05:40:50.317Z,965.64
2022-08-22T05:41:50.623Z,965.67
2022-08-22T05:42:50.958Z,965.65
2022-08-22T05:43:51.319Z,965.65
2022-08-22T05:44:51.494Z,965.66
2022-08-22T05:45:51.814Z,965.66
2022-08-22T05:46:52.142Z,965.65
2022-08-22T05:47:52.465Z,965.67
2022-08-22T05:48:52.709Z,965.66
2022-08-22T05:49:53.022Z,965.68
2022-08-22T05:50:53.346Z,965.68
2022-08-22T05:51:53.665Z,965.72
2022-08-22T05:52:53.994Z,965.75
2022-08-22T05:53:54.338Z,965.78
2022-08-22T05:54:54.526Z,965.74
2022-08-22T05:55:54.839Z,965.79
2022-08-22T05:56:55.152Z,965.77
2022-08-22T05:57:55.508Z,965.77
2022-08-22T05:58:55.837Z,965.82
2022-08-22T05:59:56.034Z,965.77
2022-08-22T06:00:56.342Z,965.80
2022-08-22T06:01:56.691Z,965.77
2022-08-22T06:02:56.944Z,965.78
2022-08-22T06:03:57.283Z,965.79
2022-08-22T06:04:57.455Z,965.80
2022-08-22T06:05:57.744Z,965.80
2022-08-22T06:06:58.038Z,965.80
2022-08-22T06:07:58.490Z,965.81
2022-08-22T06:08:58.695Z,965.75
2022-08-22T06:09:58.923Z,965.76
2022-08-22T06:10:59.246Z,965.76
2022-08-22T06:11:59.551Z,965.71
2022-08-22T06:12:59.879Z,965.72
2022-08-22T06:14:00.217Z,965.71
2022-08-22T06:15:00.401Z,965.67
2022-08-22T06:16:00.699Z,965.71
2022-08-22T06:17:01.058Z,965.72
2022-08-22T06:18:01.269Z,965.74
2022-08-22T06:19:01.579Z,965.72
2022-08-22T06:20:01.879Z,965.72
2022-08-22T06:21:02.197Z,965.73
2022-08-22T06:22:02.561Z,965.75
2022-08-22T06:23:02.743Z,965.74
2022-08-22T06:24:03.093Z,965.74
2022-08-22T06:25:03.289Z,965.74
2022-08-22T06:26:03.609Z,965.74
2022-08-22T06:27:03.934Z,965.70
2022-08-22T06:28:04.287Z,965.71
2022-08-22T06:29:04.469Z,965.70
2022-08-22T06:30:04.753Z,965.69
2022-08-22T06:31:05.057Z,965.70
2022-08-22T06:32:05.360Z,965.65
2022-08-22T06:33:05.709Z,965.69
2022-08-22T06:34:06.007Z,965.65
2022-08-22T06:35:06.326Z,965.66
2022-08-22T06:36:06.640Z,965.67
2022-08-22T06:37:06.953Z,965.66
2022-08-22T06:38:07.304Z,965.68
2022-08-22T06:39:07.495Z,965.67
2022-08-22T06:40:07.867Z,965.65
2022-08-22T06:41:08.098Z,965.69
2022-08-22T06:42:10.365Z,965.71
2022-08-22T06:43:08.758Z,965.69
2022-08-22T06:44:08.948Z,965.69
2022-08-22T06:45:09.257Z,965.71
2022-08-22T06:46:09.586Z,965.71
2022-08-22T06:47:09.899Z,965.69
2022-08-22T06:48:10.198Z,965.73
2022-08-22T06:49:10.508Z,965.73
2022-08-22T06:50:10.875Z,965.78
2022-08-22T06:51:11.149Z,965.73
2022-08-22T06:52:11.465Z,965.71
2022-08-22T06:53:11.782Z,965.70
2022-08-22T06:54:12.085Z,965.69
2022-08-22T06:55:16.254Z,965.67
2022-08-22T06:56:12.626Z,965.67
2022-08-22T06:57:12.924Z,965.66
2022-08-22T06:58:13.276Z,965.65
2022-08-22T06:59:13.568Z,965.59
2022-08-22T07:00:13.868Z,965.58
2022-08-22T07:01:14.192Z,965.57
2022-08-22T07:02:14.509Z,965.55
2022-08-22T07:03:14.797Z,965.58
2022-08-22T07:04:15.131Z,965.55
2022-08-22T07:05:19.189Z,965.55
2022-08-22T07:06:15.679Z,965.56
2022-08-22T07:07:15.967Z,965.56
2022-08-22T07:08:16.285Z,965.60
2022-08-22T07:09:16.599Z,965.59
2022-08-22T07:10:16.922Z,965.56
2022-08-22T07:11:17.233Z,965.56
2022-08-22T07:12:17.565Z,965.56
2022-08-22T07:13:17.873Z,965.59
2022-08-22T07:14:18.197Z,965.64
2022-08-22T07:15:18.536Z,965.69
2022-08-22T07:16:18.839Z,965.66
2022-08-22T07:17:19.184Z,965.68
2022-08-22T07:18:19.497Z,965.70
2022-08-22T07:19:19.826Z,965.73
2022-08-22T07:20:20.142Z,965.75
2022-08-22T07:21:20.438Z,965.78
2022-08-22T07:22:20.788Z,965.78
2022-08-22T07:23:21.101Z,965.81
2022-08-22T07:24:21.410Z,965.79
2022-08-22T07:25:21.713Z,965.78
2022-08-22T07:26:22.077Z,965.82
2022-08-22T07:27:22.255Z,965.83
2022-08-22T07:28:31.742Z,965.83
2022-08-22T07:29:23.854Z,965.83
2022-08-22T07:30:28.059Z,965.86
2022-08-22T07:31:24.438Z,965.84
2022-08-22T07:32:23.682Z,965.88
2022-08-22T07:33:27.022Z,965.90
2022-08-22T07:34:24.354Z,965.90
2022-08-22T07:35:24.644Z,965.87
2022-08-22T07:36:28.385Z,965.83
2022-08-22T07:37:26.237Z,965.86
2022-08-22T07:38:25.478Z,965.86
2022-08-22T07:39:25.841Z,965.84
2022-08-22T07:40:26.156Z,965.84
2022-08-22T07:41:26.268Z,965.87
2022-08-22T07:42:30.090Z,965.82
2022-08-22T07:43:26.920Z,965.82
2022-08-22T07:44:27.277Z,965.80
2022-08-22T07:45:27.488Z,965.81
2022-08-22T07:46:27.799Z,965.75
2022-08-22T07:47:28.079Z,965.79
2022-08-22T07:48:28.393Z,965.72
2022-08-22T07:49:28.692Z,965.73
2022-08-22T07:50:29.016Z,965.75
2022-08-22T07:51:29.344Z,965.75
2022-08-22T07:52:29.648Z,965.80
2022-08-22T07:53:29.956Z,965.77
2022-08-22T07:54:30.273Z,965.80
2022-08-22T07:55:30.559Z,965.80
2022-08-22T07:56:30.893Z,965.78
2022-08-22T07:57:31.075Z,965.78
2022-08-22T07:58:31.373Z,965.76
2022-08-22T07:59:31.687Z,965.73
2022-08-22T08:00:31.987Z,965.75
2022-08-22T08:01:32.377Z,965.78
2022-08-22T08:02:32.588Z,965.77
2022-08-22T08:03:32.892Z,965.80
2022-08-22T08:04:40.400Z,965.78
2022-08-22T08:05:33.409Z,965.82
2022-08-22T08:06:33.721Z,965.81
2022-08-22T08:07:34.081Z,965.85
2022-08-22T08:08:34.278Z,965.83
2022-08-22T08:09:34.589Z,965.82
2022-08-22T08:10:34.896Z,965.80
2022-08-22T08:11:35.236Z,965.77
2022-08-22T08:12:35.530Z,965.76
2022-08-22T08:13:35.862Z,965.77
2022-08-22T08:14:36.167Z,965.76
2022-08-22T08:15:36.466Z,965.74
2022-08-22T08:16:36.794Z,965.76
2022-08-22T08:17:37.094Z,965.72
2022-08-22T08:18:37.456Z,965.75
2022-08-22T08:19:37.633Z,965.77
2022-08-22T08:20:38.008Z,965.76
2022-08-22T08:21:38.205Z,965.78
2022-08-22T08:22:38.515Z,965.77
2022-08-22T08:23:39.658Z,965.74
2022-08-22T08:24:40.960Z,965.79
2022-08-22T08:25:39.470Z,965.81
2022-08-22T08:26:39.780Z,965.80
2022-08-22T08:27:40.119Z,965.82
2022-08-22T08:28:40.431Z,965.82
2022-08-22T08:29:40.760Z,965.81
2022-08-22T08:30:41.059Z,965.81
2022-08-22T08:31:43.195Z,965.84
2022-08-22T08:32:41.703Z,965.83
2022-08-22T08:33:41.946Z,965.84
2022-08-22T08:34:42.193Z,965.85
2022-08-22T08:36:02.881Z,965.86
2022-08-22T08:36:43.848Z,965.81
2022-08-22T08:37:43.123Z,965.81
2022-08-22T08:38:43.446Z,965.82
2022-08-22T08:39:43.766Z,965.82
2022-08-22T08:40:43.969Z,965.81
2022-08-22T08:41:44.243Z,965.83
2022-08-22T08:42:44.576Z,965.82
2022-08-22T08:43:44.874Z,965.76
2022-08-22T08:44:45.168Z,965.77
2022-08-22T08:45:45.462Z,965.81
2022-08-22T08:46:53.087Z,965.83
2022-08-22T08:47:47.935Z,965.81
2022-08-22T08:48:46.362Z,965.80
2022-08-22T08:49:46.611Z,965.83
2022-08-22T08:50:46.863Z,965.80
2022-08-22T08:51:47.158Z,965.83
2022-08-22T08:52:51.030Z,965.83
2022-08-22T08:53:48.773Z,965.79
2022-08-22T08:54:48.017Z,965.83
2022-08-22T08:55:48.321Z,965.84
2022-08-22T08:56:48.513Z,965.80
2022-08-22T08:57:48.838Z,965.83
2022-08-22T08:58:49.152Z,965.78
2022-08-22T08:59:49.484Z,965.79
2022-08-22T09:00:49.873Z,965.75
2022-08-22T09:01:50.103Z,965.73
2022-08-22T09:02:50.405Z,965.77
2022-08-22T09:04:52.038Z,965.78
2022-08-22T09:05:51.286Z,965.78
2022-08-22T09:06:52.857Z,965.78
2022-08-22T09:07:52.875Z,965.78
2022-08-22T09:08:55.620Z,965.81
2022-08-22T09:09:52.733Z,965.73
2022-08-22T09:10:52.763Z,965.73
2022-08-22T09:11:53.052Z,965.70
2022-08-22T09:12:56.110Z,965.72
2022-08-22T09:13:54.662Z,965.69
2022-08-22T09:14:53.943Z,965.68
2022-08-22T09:15:56.321Z,965.68
2022-08-22T09:16:55.422Z,965.68
2022-08-22T09:17:54.733Z,965.67
2022-08-22T09:18:54.956Z,965.64
2022-08-22T09:19:55.268Z,965.61
2022-08-22T09:20:55.597Z,965.65
2022-08-22T09:21:55.917Z,965.64
2022-08-22T09:22:56.230Z,965.62
2022-08-22T09:23:56.558Z,965.65
2022-08-22T09:24:56.862Z,965.62
2022-08-22T09:25:57.268Z,965.57
2022-08-22T09:26:57.602Z,965.61
2022-08-22T09:27:57.911Z,965.62
2022-08-22T09:28:57.977Z,965.59
2022-08-22T09:29:59.743Z,965.64
2022-08-22T09:30:58.568Z,965.60
2022-08-22T09:32:00.326Z,965.59
2022-08-22T09:32:59.140Z,965.60
2022-08-22T09:33:59.469Z,965.62
2022-08-22T09:34:59.813Z,965.65
2022-08-22T09:36:00.105Z,965.63
2022-08-22T09:37:00.380Z,965.64
2022-08-22T09:38:01.085Z,965.62
2022-08-22T09:39:00.922Z,965.64
2022-08-22T09:40:01.315Z,965.64
2022-08-22T09:41:02.311Z,965.64
2022-08-22T09:42:02.753Z,965.64
2022-08-22T09:43:02.417Z,965.59
2022-08-22T09:44:02.444Z,965.59
2022-08-22T09:45:02.811Z,965.60
2022-08-22T09:46:03.048Z,965.59
2022-08-22T09:47:03.365Z,965.53
2022-08-22T09:48:07.573Z,965.55
2022-08-22T09:49:05.413Z,965.54
2022-08-22T09:50:04.113Z,965.56
2022-08-22T09:51:28.697Z,965.57
2022-08-22T09:52:15.183Z,965.56
2022-08-22T09:53:05.907Z,965.53
2022-08-22T09:54:05.192Z,965.52
2022-08-22T09:55:08.634Z,965.57
2022-08-22T09:56:15.603Z,965.55
2022-08-22T09:57:07.041Z,965.56
2022-08-22T09:58:06.372Z,965.51
2022-08-22T09:59:09.817Z,965.53
2022-08-22T10:00:06.954Z,965.52
2022-08-22T10:01:07.344Z,965.53
2022-08-22T10:02:15.364Z,965.52
2022-08-22T10:03:08.872Z,965.52
2022-08-22T10:04:08.162Z,965.44
2022-08-22T10:05:08.461Z,965.49
2022-08-22T10:06:09.106Z,965.48
2022-08-22T10:07:11.923Z,965.45
2022-08-22T10:08:11.498Z,965.46
2022-08-22T10:09:09.480Z,965.44
2022-08-22T10:10:09.814Z,965.44
2022-08-22T10:11:10.096Z,965.44
2022-08-22T10:12:12.777Z,965.47
2022-08-22T10:13:10.782Z,965.46
2022-08-22T10:14:10.973Z,965.44
2022-08-22T10:15:11.205Z,965.47
2022-08-22T10:16:11.513Z,965.47
2022-08-22T10:17:11.792Z,965.44
2022-08-22T10:18:12.142Z,965.44
2022-08-22T10:19:12.314Z,965.37
2022-08-22T10:20:12.622Z,965.37
2022-08-22T10:21:12.856Z,965.38
2022-08-22T10:22:13.200Z,965.40
2022-08-22T10:23:13.483Z,965.40
2022-08-22T10:24:13.706Z,965.36
2022-08-22T10:25:15.007Z,965.33
2022-08-22T10:26:22.941Z,965.35
2022-08-22T10:27:15.641Z,965.33
2022-08-22T10:28:14.902Z,965.39
2022-08-22T10:29:15.204Z,965.37
2022-08-22T10:30:16.382Z,965.37
2022-08-22T10:31:15.750Z,965.35
2022-08-22T10:32:16.053Z,965.33
2022-08-22T10:33:16.322Z,965.33
2022-08-22T10:34:16.630Z,965.30
2022-08-22T10:35:16.974Z,965.31
2022-08-22T10:36:17.278Z,965.26
2022-08-22T10:37:17.576Z,965.30
2022-08-22T10:38:18.876Z,965.28
2022-08-22T10:39:18.164Z,965.32
2022-08-22T10:40:18.640Z,965.29
2022-08-22T10:41:18.696Z,965.31
2022-08-22T10:42:18.910Z,965.34
2022-08-22T10:43:19.187Z,965.33
2022-08-22T10:44:19.497Z,965.36
2022-08-22T10:45:23.905Z,965.36
2022-08-22T10:46:21.136Z,965.35
2022-08-22T10:47:20.386Z,965.41
2022-08-22T10:48:20.741Z,965.41
2022-08-22T10:49:22.442Z,965.35
2022-08-22T10:50:22.300Z,965.37
2022-08-22T10:51:21.556Z,965.33
2022-08-22T10:52:21.804Z,965.33
2022-08-22T10:53:29.491Z,965.34
2022-08-22T10:54:23.398Z,965.33
2022-08-22T10:55:22.685Z,965.29
2022-08-22T10:56:22.892Z,965.32
2022-08-22T10:57:23.166Z,965.32
2022-08-22T10:58:23.504Z,965.26
2022-08-22T10:59:23.737Z,965.28
2022-08-22T11:00:25.698Z,965.32
2022-08-22T11:01:37.439Z,965.30
2022-08-22T11:02:25.560Z,965.32
2022-08-22T11:03:25.056Z,965.27
2022-08-22T11:04:28.280Z,965.27
2022-08-22T11:05:25.332Z,965.30
2022-08-22T11:06:25.656Z,965.25
2022-08-22T11:07:25.979Z,965.25
2022-08-22T11:08:26.218Z,965.26
2022-08-22T11:09:26.557Z,965.24
2022-08-22T11:10:26.810Z,965.19
2022-08-22T11:11:32.957Z,965.18
2022-08-22T11:12:35.149Z,965.21
2022-08-22T11:13:28.630Z,965.19
2022-08-22T11:14:27.918Z,965.24
2022-08-22T11:15:34.973Z,965.20
2022-08-22T11:16:36.743Z,965.18
2022-08-22T11:17:32.400Z,965.22
2022-08-22T11:18:30.466Z,965.13
2022-08-22T11:19:29.452Z,965.13
2022-08-22T11:20:29.732Z,965.15
2022-08-22T11:21:30.063Z,965.12
2022-08-22T11:22:30.372Z,965.11
2022-08-22T11:23:30.721Z,965.10
2022-08-22T11:24:35.391Z,965.15
2022-08-22T11:25:38.406Z,965.14
2022-08-22T11:26:35.799Z,965.14
2022-08-22T11:27:34.480Z,965.11
2022-08-22T11:28:33.036Z,965.13
2022-08-22T11:29:32.272Z,965.16
2022-08-22T11:30:36.285Z,965.13
2022-08-22T11:31:36.738Z,965.11
2022-08-22T11:32:33.098Z,965.09
2022-08-22T11:33:47.333Z,965.11
2022-08-22T11:34:34.703Z,965.09
2022-08-22T11:35:33.964Z,965.01
2022-08-22T11:36:34.252Z,965.07
2022-08-22T11:37:42.526Z,965.02
2022-08-22T11:38:36.115Z,965.00
2022-08-22T11:39:35.041Z,965.01
2022-08-22T11:40:35.334Z,964.99
2022-08-22T11:41:35.705Z,964.97
2022-08-22T11:42:36.058Z,964.92
2022-08-22T11:43:37.374Z,964.97
2022-08-22T11:44:49.961Z,964.94
2022-08-22T11:45:37.924Z,964.95
2022-08-22T11:46:37.200Z,964.95
2022-08-22T11:47:37.423Z,964.97
2022-08-22T11:48:37.623Z,964.96
2022-08-22T11:49:37.940Z,964.97
2022-08-22T11:50:38.158Z,964.94
2022-08-22T11:51:38.503Z,964.95
2022-08-22T11:52:38.831Z,964.95
2022-08-22T11:53:39.024Z,964.91
2022-08-22T11:54:39.358Z,964.92
2022-08-22T11:55:39.614Z,964.95
2022-08-22T11:56:40.162Z,964.93
2022-08-22T11:57:41.823Z,964.92
2022-08-22T11:58:40.516Z,964.90
2022-08-22T11:59:40.841Z,964.85
2022-08-22T12:00:41.154Z,964.86
2022-08-22T12:01:41.477Z,964.85
2022-08-22T12:02:41.758Z,964.80
2022-08-22T12:03:42.024Z,964.80
2022-08-22T12:04:42.674Z,964.78
2022-08-22T12:05:42.648Z,964.75
2022-08-22T12:06:42.990Z,964.71
2022-08-22T12:07:47.388Z,964.75
2022-08-22T12:08:44.636Z,964.81
2022-08-22T12:09:43.880Z,964.79
2022-08-22T12:10:44.179Z,964.79
2022-08-22T12:11:44.479Z,964.80
2022-08-22T12:12:44.702Z,964.75
2022-08-22T12:13:45.050Z,964.75
2022-08-22T12:14:45.344Z,964.76
2022-08-22T12:15:45.690Z,964.82
2022-08-22T12:16:47.309Z,964.80
2022-08-22T12:17:55.301Z,964.80
2022-08-22T12:18:47.410Z,964.75
2022-08-22T12:20:12.835Z,964.82
2022-08-22T12:20:47.906Z,964.74
2022-08-22T12:21:47.221Z,964.75
2022-08-22T12:22:49.817Z,964.75
2022-08-22T12:23:49.328Z,964.70
2022-08-22T12:24:48.031Z,964.69
2022-08-22T12:25:48.270Z,964.66
2022-08-22T12:26:48.501Z,964.65
2022-08-22T12:27:50.632Z,964.67
2022-08-22T12:28:50.129Z,964.56
2022-08-22T12:29:49.375Z,964.58
2022-08-22T12:30:53.569Z,964.55
2022-08-22T12:31:50.929Z,964.57
2022-08-22T12:32:50.183Z,964.54
2022-08-22T12:33:50.499Z,964.52
2022-08-22T12:34:50.750Z,964.51
2022-08-22T12:35:51.080Z,964.54
2022-08-22T12:36:51.262Z,964.53
2022-08-22T12:37:52.736Z,964.55
2022-08-22T12:38:51.828Z,964.51
2022-08-22T12:39:52.075Z,964.57
2022-08-22T12:40:52.335Z,964.52
2022-08-22T12:41:52.522Z,964.50
2022-08-22T12:42:52.846Z,964.49
2022-08-22T12:43:53.166Z,964.42
2022-08-22T12:44:53.534Z,964.41
2022-08-22T12:45:53.733Z,964.44
2022-08-22T12:46:54.060Z,964.42
2022-08-22T12:47:54.406Z,964.45
2022-08-22T12:48:54.612Z,964.41
2022-08-22T12:49:54.970Z,964.41
2022-08-22T12:50:55.164Z,964.38
2022-08-22T12:51:55.825Z,964.38
2022-08-22T12:52:55.829Z,964.33
2022-08-22T12:53:56.018Z,964.41
2022-08-22T12:54:56.322Z,964.40
2022-08-22T12:55:56.629Z,964.44
2022-08-22T12:56:56.956Z,964.45
2022-08-22T12:58:01.421Z,964.48
2022-08-22T12:58:57.534Z,964.38
2022-08-22T12:59:58.136Z,964.43
2022-08-22T13:00:58.181Z,964.39
2022-08-22T13:01:58.403Z,964.41
2022-08-22T13:02:58.801Z,964.40
2022-08-22T13:03:58.915Z,964.38
2022-08-22T13:04:59.223Z,964.31
2022-08-22T13:06:00.561Z,964.37
2022-08-22T13:06:59.835Z,964.31
2022-08-22T13:08:04.132Z,964.33
2022-08-22T13:09:00.261Z,964.28
2022-08-22T13:10:00.561Z,964.26
2022-08-22T13:11:00.833Z,964.21
2022-08-22T13:12:02.460Z,964.21
2022-08-22T13:13:03.900Z,964.16
2022-08-22T13:14:02.634Z,964.13
2022-08-22T13:15:01.911Z,964.14
2022-08-22T13:16:02.280Z,964.13
2022-08-22T13:17:10.230Z,964.14
2022-08-22T13:18:25.157Z,964.09
2022-08-22T13:19:07.757Z,964.06
2022-08-22T13:20:03.310Z,964.13
2022-08-22T13:21:03.653Z,964.08
2022-08-22T13:22:03.865Z,964.05
2022-08-22T13:23:04.184Z,964.05
2022-08-22T13:24:05.469Z,964.03
2022-08-22T13:25:05.793Z,964.00
2022-08-22T13:26:07.687Z,964.00
2022-08-22T13:27:05.796Z,964.01
2022-08-22T13:28:05.860Z,964.03
2022-08-22T13:30:07.231Z,964.01
2022-08-22T13:31:07.617Z,963.97
2022-08-22T13:32:06.846Z,963.94
2022-08-22T13:33:08.752Z,963.97
2022-08-22T13:34:07.414Z,963.93
2022-08-22T13:35:07.756Z,963.93
2022-08-22T13:36:08.024Z,963.89
2022-08-22T13:37:08.277Z,963.83
2022-08-22T13:38:12.589Z,963.87
2022-08-22T13:39:08.945Z,963.87
2022-08-22T13:40:09.344Z,963.89
2022-08-22T13:41:09.523Z,963.89
2022-08-22T13:42:20.138Z,963.88
2022-08-22T13:43:11.202Z,963.91
2022-08-22T13:44:10.484Z,963.91
2022-08-22T13:45:10.792Z,963.86
2022-08-22T13:46:11.518Z,963.84
2022-08-22T13:47:14.520Z,963.82
2022-08-22T13:48:11.683Z,963.80
2022-08-22T13:49:12.042Z,963.85
2022-08-22T13:50:12.205Z,963.81
2022-08-22T13:51:12.558Z,963.82
2022-08-22T13:52:29.322Z,963.79
2022-08-22T13:53:14.190Z,963.80
2022-08-22T13:54:13.421Z,963.78
2022-08-22T13:55:13.770Z,963.80
2022-08-22T13:56:15.682Z,963.71
2022-08-22T13:57:14.294Z,963.78
2022-08-22T13:58:14.512Z,963.79
2022-08-22T13:59:29.245Z,963.78
2022-08-22T14:00:22.388Z,963.71
2022-08-22T14:01:16.539Z,963.77
2022-08-22T14:02:18.188Z,963.74
2022-08-22T14:03:15.990Z,963.78
2022-08-22T14:04:19.073Z,963.79
2022-08-22T14:05:17.565Z,963.73
2022-08-22T14:06:35.313Z,963.79
2022-08-22T14:07:18.131Z,963.83
2022-08-22T14:08:18.663Z,963.79
2022-08-22T14:09:29.453Z,963.76
2022-08-22T14:10:18.923Z,963.75
2022-08-22T14:11:18.232Z,963.79
2022-08-22T14:12:18.536Z,963.67
2022-08-22T14:13:18.766Z,963.85
2022-08-22T14:14:19.083Z,963.81
2022-08-22T14:15:19.401Z,963.87
2022-08-22T14:16:19.707Z,963.85
2022-08-22T14:17:20.964Z,963.85
2022-08-22T14:18:20.308Z,963.82
2022-08-22T14:19:21.624Z,963.79
2022-08-22T14:20:32.449Z,963.77
2022-08-22T14:21:22.160Z,963.75
2022-08-22T14:22:21.426Z,963.76
2022-08-22T14:23:22.727Z,963.74
2022-08-22T14:24:25.453Z,963.77
2022-08-22T14:25:23.364Z,963.76
2022-08-22T14:26:22.604Z,963.78
2022-08-22T14:27:23.896Z,963.76
2022-08-22T14:28:23.217Z,963.72
2022-08-22T14:29:23.501Z,963.76